Time;durP1;ratioP1;P1;durP2;ratioP2;P2;SDS_P1;SDS_P2;PMS_P1;PMS_P2;Temp;Humidity;BMP_temperature;BMP_pressure;BME280_temperature;BME280_humidity;BME280_pressure;Samples;Min_cycle;Max_cycle;Signal;HPM_P1;HPM_P2
2022/01/14 00:01:16;;;;;;;227.23;56.07;;;;;;;;;;5030708;28;20903;-68
2022/01/14 00:03:43;;;;;;;273.90;60.73;;;;;;;;;;5029073;28;20046;-68
2022/01/14 00:06:09;;;;;;;325.47;62.07;;;;;;;;;;5030497;28;20142;-68
2022/01/14 00:08:35;;;;;;;241.37;56.40;;;;;;;;;;5030796;28;20044;-68
2022/01/14 00:11:03;;;;;;;233.00;53.90;;;;;;;;;;5027762;28;20049;-67
2022/01/14 00:16:10;;;;;;;231.30;55.20;;;;;;;;;;5029315;28;20061;-68
2022/01/14 00:18:36;;;;;;;212.70;58.20;;;;;;;;;;5029757;28;20666;-68
2022/01/14 00:21:02;;;;;;;227.73;54.67;;;;;;;;;;5031197;28;20103;-68
2022/01/14 00:23:33;;;;;;;263.87;60.17;;;;;;;;;;5029841;28;20055;-68
2022/01/14 00:31:43;;;;;;;319.30;67.87;;;;;;;;;;5035352;28;20889;-68
2022/01/14 00:34:10;;;;;;;338.70;65.77;;;;;;;;;;5035858;28;20580;-68
2022/01/14 00:36:36;;;;;;;302.13;67.87;;;;;;;;;;5038637;28;20045;-68
2022/01/14 00:39:02;;;;;;;294.37;68.07;;;;;;;;;;5036982;28;20084;-68
2022/01/14 00:41:28;;;;;;;300.60;63.30;;;;;;;;;;5035549;28;20076;-67
2022/01/14 00:44:00;;;;;;;262.90;60.67;;;;;;;;;;5038804;28;20124;-68
2022/01/14 00:46:26;;;;;;;286.33;62.60;;;;;;;;;;5040851;28;20049;-68
2022/01/14 00:48:52;;;;;;;256.83;62.07;;;;;;;;;;5037661;28;20091;-69
2022/01/14 00:51:18;;;;;;;316.67;65.07;;;;;;;;;;5036812;28;20049;-68
2022/01/14 00:53:44;;;;;;;273.20;62.57;;;;;;;;;;5038719;28;20048;-67
2022/01/14 00:59:16;;;;;;;266.80;61.93;;;;;;;;;;5041886;28;20214;-68
2022/01/14 01:01:49;;;;;;;310.33;67.73;;;;;;;;;;5037256;28;20562;-68
2022/01/14 01:04:25;;;;;;;342.67;68.97;;;;;;;;;;5029656;28;20056;-68
2022/01/14 01:06:51;;;;;;;270.27;60.27;;;;;;;;;;5029749;28;20734;-67
2022/01/14 01:09:17;;;;;;;255.77;60.93;;;;;;;;;;5029537;28;20045;-68
2022/01/14 01:11:55;;;;;;;232.80;60.63;;;;;;;;;;5028904;28;20041;-67
2022/01/14 01:14:34;;;;;;;229.73;57.73;;;;;;;;;;5029136;28;20041;-68
2022/01/14 01:17:00;;;;;;;220.17;57.27;;;;;;;;;;5027274;28;20052;-68
2022/01/14 01:19:26;;;;;;;253.63;58.73;;;;;;;;;;5029250;28;20084;-68
2022/01/14 01:21:53;;;;;;;248.43;62.03;;;;;;;;;;5029501;28;20076;-68
2022/01/14 01:24:19;;;;;;;236.80;57.77;;;;;;;;;;5028614;28;20053;-68
2022/01/14 01:26:45;;;;;;;260.07;60.87;;;;;;;;;;5028324;28;20045;-68
2022/01/14 01:31:38;;;;;;;261.33;60.43;;;;;;;;;;5028916;28;20056;-67
2022/01/14 01:34:13;;;;;;;253.93;57.90;;;;;;;;;;5028945;28;20077;-67
2022/01/14 01:36:40;;;;;;;257.03;58.30;;;;;;;;;;5032069;28;20053;-67
2022/01/14 01:39:08;;;;;;;238.90;56.37;;;;;;;;;;5034579;28;20153;-68
2022/01/14 01:41:37;;;;;;;259.07;59.27;;;;;;;;;;5037085;28;20483;-67
2022/01/14 01:44:06;;;;;;;245.50;58.33;;;;;;;;;;5036337;28;20053;-68
2022/01/14 01:46:33;;;;;;;255.87;59.00;;;;;;;;;;5036552;28;20454;-67
2022/01/14 01:48:59;;;;;;;265.97;58.63;;;;;;;;;;5036266;28;20148;-68
2022/01/14 01:51:25;;;;;;;269.33;60.20;;;;;;;;;;5035172;28;20503;-68
2022/01/14 01:53:51;;;;;;;252.23;57.73;;;;;;;;;;5038416;28;20056;-68
2022/01/14 01:56:17;;;;;;;240.03;57.57;;;;;;;;;;5019694;28;20050;-68
2022/01/14 01:58:44;;;;;;;265.23;60.83;;;;;;;;;;5034485;28;20048;-68
2022/01/14 02:01:10;;;;;;;284.57;60.30;;;;;;;;;;5038028;28;20099;-68
2022/01/14 02:03:37;;;;;;;264.63;58.30;;;;;;;;;;5035281;28;20747;-68
2022/01/14 02:06:03;;;;;;;236.30;58.10;;;;;;;;;;5033539;28;20153;-68
2022/01/14 02:08:29;;;;;;;268.03;60.93;;;;;;;;;;5038261;28;20506;-68
2022/01/14 02:10:56;;;;;;;239.47;59.57;;;;;;;;;;5035491;28;20041;-68
2022/01/14 02:13:22;;;;;;;219.87;56.67;;;;;;;;;;5038898;28;20045;-68
2022/01/14 02:16:57;;;;;;;234.83;57.80;;;;;;;;;;5031756;28;20053;-68
2022/01/14 02:24:08;;;;;;;256.63;57.20;;;;;;;;;;5027868;28;20046;-68
2022/01/14 02:26:34;;;;;;;248.23;54.63;;;;;;;;;;5028249;28;20499;-68
2022/01/14 02:29:00;;;;;;;211.17;51.90;;;;;;;;;;5028005;28;20060;-67
2022/01/14 02:31:26;;;;;;;220.00;54.17;;;;;;;;;;5026864;28;20049;-68
2022/01/14 02:33:52;;;;;;;258.33;56.53;;;;;;;;;;5027323;28;20564;-70
2022/01/14 02:36:18;;;;;;;202.73;54.47;;;;;;;;;;5027327;28;20102;-67
2022/01/14 02:38:45;;;;;;;230.10;55.10;;;;;;;;;;5028756;28;20077;-67
2022/01/14 02:41:12;;;;;;;222.47;56.13;;;;;;;;;;5027147;28;20053;-68
2022/01/14 02:43:38;;;;;;;201.97;52.93;;;;;;;;;;5029135;28;20128;-68
2022/01/14 02:46:05;;;;;;;255.70;53.80;;;;;;;;;;5031549;28;20045;-68
2022/01/14 02:48:31;;;;;;;185.63;48.73;;;;;;;;;;5038223;28;20064;-68
2022/01/14 02:51:18;;;;;;;173.37;46.73;;;;;;;;;;5041827;28;20472;-67
2022/01/14 02:53:56;;;;;;;157.70;45.37;;;;;;;;;;5039020;28;20120;-67
2022/01/14 02:56:24;;;;;;;166.90;47.40;;;;;;;;;;5034869;28;20056;-67
2022/01/14 02:58:51;;;;;;;172.27;47.07;;;;;;;;;;5039668;28;20182;-68
2022/01/14 03:01:20;;;;;;;153.13;45.00;;;;;;;;;;5035679;28;20041;-68
2022/01/14 03:03:47;;;;;;;190.63;46.33;;;;;;;;;;5036613;28;20049;-68
2022/01/14 03:06:13;;;;;;;176.53;46.10;;;;;;;;;;5040784;28;20041;-68
2022/01/14 03:08:39;;;;;;;179.37;45.80;;;;;;;;;;5039465;28;20049;-68
2022/01/14 03:11:08;;;;;;;150.40;43.07;;;;;;;;;;5039940;28;20523;-68
2022/01/14 03:13:34;;;;;;;174.03;45.27;;;;;;;;;;5039297;28;20056;-66
2022/01/14 03:16:01;;;;;;;179.47;48.03;;;;;;;;;;5041376;28;20052;-66
2022/01/14 03:18:41;;;;;;;161.57;47.53;;;;;;;;;;5039660;28;20114;-66
2022/01/14 03:21:12;;;;;;;159.97;44.10;;;;;;;;;;5036840;28;20041;-66
2022/01/14 03:23:44;;;;;;;184.80;46.57;;;;;;;;;;5038746;28;20096;-66
2022/01/14 03:26:11;;;;;;;171.47;49.40;;;;;;;;;;5038801;28;20042;-66
2022/01/14 03:28:37;;;;;;;186.13;48.67;;;;;;;;;;5041420;28;20037;-66
2022/01/14 03:31:03;;;;;;;188.57;49.53;;;;;;;;;;5041146;28;20178;-66
2022/01/14 03:33:29;;;;;;;170.17;48.87;;;;;;;;;;5038832;28;20566;-66
2022/01/14 03:35:55;;;;;;;197.97;50.87;;;;;;;;;;5040230;28;20045;-66
2022/01/14 03:38:21;;;;;;;188.13;48.93;;;;;;;;;;5038239;28;20392;-66
2022/01/14 03:40:47;;;;;;;152.40;45.77;;;;;;;;;;5039447;28;20033;-66
2022/01/14 03:43:13;;;;;;;175.27;48.53;;;;;;;;;;5039524;28;20490;-66
2022/01/14 03:45:39;;;;;;;163.90;47.70;;;;;;;;;;5040866;28;20570;-66
2022/01/14 03:48:06;;;;;;;185.90;47.53;;;;;;;;;;5038559;28;20045;-66
2022/01/14 03:50:33;;;;;;;196.23;49.43;;;;;;;;;;5039301;28;20507;-67
2022/01/14 03:52:59;;;;;;;162.23;48.00;;;;;;;;;;5040464;28;20044;-66
2022/01/14 03:55:25;;;;;;;194.10;48.37;;;;;;;;;;5037080;28;20037;-65
2022/01/14 03:57:51;;;;;;;167.93;46.10;;;;;;;;;;5040560;28;20407;-66
2022/01/14 04:00:17;;;;;;;176.03;47.40;;;;;;;;;;5038017;28;20491;-65
2022/01/14 04:02:44;;;;;;;175.23;45.67;;;;;;;;;;5036120;28;20415;-66
2022/01/14 04:05:10;;;;;;;202.13;48.43;;;;;;;;;;5041303;28;20041;-65
2022/01/14 04:07:36;;;;;;;205.23;52.23;;;;;;;;;;5036215;28;20140;-66
2022/01/14 04:10:02;;;;;;;215.87;49.70;;;;;;;;;;5040112;28;20091;-66
2022/01/14 04:12:44;;;;;;;182.20;45.73;;;;;;;;;;5037779;28;20050;-65
2022/01/14 04:17:56;;;;;;;182.50;46.07;;;;;;;;;;5036185;28;20064;-66
2022/01/14 04:20:22;;;;;;;192.23;50.87;;;;;;;;;;5036784;28;20042;-65
2022/01/14 04:22:48;;;;;;;210.13;48.87;;;;;;;;;;5037142;28;20044;-65
2022/01/14 04:25:15;;;;;;;218.93;49.87;;;;;;;;;;5030335;28;20451;-65
2022/01/14 04:27:41;;;;;;;239.10;54.10;;;;;;;;;;5030355;28;20041;-66
2022/01/14 04:30:07;;;;;;;221.83;50.90;;;;;;;;;;5030129;28;20045;-66
2022/01/14 04:32:33;;;;;;;197.87;49.40;;;;;;;;;;5030466;28;20052;-65
2022/01/14 04:34:59;;;;;;;208.43;50.20;;;;;;;;;;5029175;28;20147;-66
2022/01/14 04:37:25;;;;;;;209.37;52.30;;;;;;;;;;5030303;28;20057;-65
2022/01/14 04:39:51;;;;;;;261.47;57.40;;;;;;;;;;5028878;28;20492;-66
2022/01/14 04:42:17;;;;;;;205.60;50.47;;;;;;;;;;5028437;28;20050;-66
2022/01/14 04:44:44;;;;;;;181.33;51.93;;;;;;;;;;5028681;28;20718;-66
2022/01/14 04:47:16;;;;;;;210.57;48.93;;;;;;;;;;5028915;28;20052;-66
2022/01/14 04:49:42;;;;;;;197.48;51.95;;;;;;;;;;5029601;28;20045;-66
2022/01/14 04:52:09;;;;;;;217.53;52.50;;;;;;;;;;5029733;28;20095;-65
2022/01/14 04:54:35;;;;;;;241.70;53.90;;;;;;;;;;5029372;28;20045;-66
2022/01/14 04:57:01;;;;;;;192.83;52.13;;;;;;;;;;5029230;28;20049;-66
2022/01/14 04:59:27;;;;;;;181.73;49.77;;;;;;;;;;5028160;28;20041;-65
2022/01/14 05:01:56;;;;;;;204.27;52.33;;;;;;;;;;5029390;28;20084;-66
2022/01/14 05:04:22;;;;;;;173.07;49.93;;;;;;;;;;5029132;28;20049;-66
2022/01/14 05:06:56;;;;;;;196.83;49.43;;;;;;;;;;5029495;28;20713;-65
2022/01/14 05:09:28;;;;;;;167.55;48.15;;;;;;;;;;5029012;28;20049;-66
2022/01/14 05:12:05;;;;;;;154.70;44.57;;;;;;;;;;5028757;28;20041;-65
2022/01/14 05:14:31;;;;;;;174.07;47.73;;;;;;;;;;5028047;28;20052;-66
2022/01/14 05:16:57;;;;;;;161.47;46.30;;;;;;;;;;5028262;28;20522;-66
2022/01/14 05:19:23;;;;;;;154.93;43.33;;;;;;;;;;5027943;28;20049;-66
2022/01/14 05:21:49;;;;;;;153.10;44.83;;;;;;;;;;5028813;28;20049;-66
2022/01/14 05:24:15;;;;;;;166.50;44.63;;;;;;;;;;5028589;28;20119;-65
2022/01/14 05:26:41;;;;;;;159.33;43.83;;;;;;;;;;5034948;28;20049;-66
2022/01/14 05:29:07;;;;;;;163.23;43.37;;;;;;;;;;5033293;28;20389;-66
2022/01/14 05:32:04;;;;;;;184.37;44.20;;;;;;;;;;5032636;28;20049;-65
2022/01/14 05:34:34;;;;;;;146.87;45.20;;;;;;;;;;5027397;28;20057;-66
2022/01/14 05:37:01;;;;;;;170.00;44.23;;;;;;;;;;5028771;28;20091;-67
2022/01/14 05:39:27;;;;;;;156.33;42.13;;;;;;;;;;5028870;28;20041;-66
2022/01/14 05:41:55;;;;;;;141.17;42.47;;;;;;;;;;5029356;28;20049;-66
2022/01/14 05:44:23;;;;;;;146.27;41.87;;;;;;;;;;5029206;28;20033;-66
2022/01/14 05:46:49;;;;;;;140.20;41.00;;;;;;;;;;5026380;28;20106;-66
2022/01/14 05:49:15;;;;;;;149.37;39.67;;;;;;;;;;5028944;28;20130;-66
2022/01/14 05:51:41;;;;;;;149.40;42.30;;;;;;;;;;5028782;28;20045;-66
2022/01/14 05:54:07;;;;;;;132.07;41.30;;;;;;;;;;5028720;28;20091;-65
2022/01/14 05:56:33;;;;;;;124.07;40.00;;;;;;;;;;5028766;28;20138;-66
2022/01/14 05:58:59;;;;;;;124.13;37.23;;;;;;;;;;5037837;28;20104;-66
2022/01/14 06:01:25;;;;;;;126.20;39.03;;;;;;;;;;5028495;28;20148;-67
2022/01/14 06:03:51;;;;;;;143.40;42.17;;;;;;;;;;5028586;28;20132;-66
2022/01/14 06:06:17;;;;;;;118.77;38.63;;;;;;;;;;5028787;28;20045;-65
2022/01/14 06:08:48;;;;;;;106.97;38.33;;;;;;;;;;5028664;28;20763;-65
2022/01/14 06:11:14;;;;;;;100.27;35.30;;;;;;;;;;5028161;28;20084;-66
2022/01/14 06:13:40;;;;;;;113.50;37.93;;;;;;;;;;5029063;28;20088;-66
2022/01/14 06:16:06;;;;;;;104.80;38.17;;;;;;;;;;5028084;28;20523;-66
2022/01/14 06:18:32;;;;;;;122.70;39.33;;;;;;;;;;5027614;28;20049;-65
2022/01/14 06:20:58;;;;;;;113.00;37.93;;;;;;;;;;5031275;28;20118;-66
2022/01/14 06:23:24;;;;;;;153.00;41.97;;;;;;;;;;5032280;28;20080;-66
2022/01/14 06:25:50;;;;;;;99.37;38.03;;;;;;;;;;5030635;28;20041;-65
2022/01/14 06:28:16;;;;;;;114.00;39.00;;;;;;;;;;5031254;28;20529;-66
2022/01/14 06:30:42;;;;;;;113.73;39.23;;;;;;;;;;5026849;28;20463;-65
2022/01/14 06:33:08;;;;;;;110.70;37.60;;;;;;;;;;5013551;28;20129;-66
2022/01/14 06:35:34;;;;;;;117.43;38.70;;;;;;;;;;5043720;28;20156;-66
2022/01/14 06:38:00;;;;;;;95.07;36.73;;;;;;;;;;5051621;28;20053;-66
2022/01/14 06:40:27;;;;;;;90.93;38.83;;;;;;;;;;5045252;28;20589;-66
2022/01/14 06:42:53;;;;;;;145.53;42.17;;;;;;;;;;5044593;28;20041;-65
2022/01/14 06:45:19;;;;;;;100.43;37.30;;;;;;;;;;5041701;28;20495;-66
2022/01/14 06:47:46;;;;;;;104.43;38.03;;;;;;;;;;5041090;28;20049;-66
2022/01/14 06:50:12;;;;;;;94.77;36.03;;;;;;;;;;5039177;28;20392;-66
2022/01/14 06:52:38;;;;;;;96.97;36.13;;;;;;;;;;5047457;28;20052;-65
2022/01/14 06:55:04;;;;;;;91.17;34.50;;;;;;;;;;5038491;28;20073;-66
2022/01/14 06:57:30;;;;;;;83.60;36.63;;;;;;;;;;5031684;28;20504;-66
2022/01/14 06:59:56;;;;;;;88.60;34.47;;;;;;;;;;5031400;28;20160;-65
2022/01/14 07:02:22;;;;;;;84.90;34.13;;;;;;;;;;5031968;28;20049;-65
2022/01/14 07:04:48;;;;;;;91.97;36.67;;;;;;;;;;5039023;28;20041;-65
2022/01/14 07:07:14;;;;;;;91.43;38.03;;;;;;;;;;5022679;28;20045;-66
2022/01/14 07:09:56;;;;;;;76.37;33.40;;;;;;;;;;5035139;28;20054;-66
2022/01/14 07:12:42;;;;;;;70.03;33.00;;;;;;;;;;5041930;28;20057;-67
2022/01/14 07:15:13;;;;;;;98.87;35.00;;;;;;;;;;5037057;28;20107;-66
2022/01/14 07:17:39;;;;;;;75.83;31.90;;;;;;;;;;5031196;28;20057;-66
2022/01/14 07:20:08;;;;;;;77.57;33.67;;;;;;;;;;5025246;28;20056;-66
2022/01/14 07:22:35;;;;;;;65.73;32.70;;;;;;;;;;5043936;28;20530;-65
2022/01/14 07:25:01;;;;;;;72.73;34.47;;;;;;;;;;5030786;28;20462;-65
2022/01/14 07:27:27;;;;;;;67.07;32.93;;;;;;;;;;5031758;28;20412;-66
2022/01/14 07:29:54;;;;;;;81.30;33.70;;;;;;;;;;5029613;28;20038;-66
2022/01/14 07:32:20;;;;;;;66.67;30.40;;;;;;;;;;5030738;28;20104;-66
2022/01/14 07:34:47;;;;;;;76.57;33.23;;;;;;;;;;5031778;28;20056;-66
2022/01/14 07:37:13;;;;;;;61.40;29.30;;;;;;;;;;5029209;28;20124;-66
2022/01/14 07:39:39;;;;;;;63.90;30.80;;;;;;;;;;5030353;28;20048;-65
2022/01/14 07:42:06;;;;;;;64.13;31.33;;;;;;;;;;5029966;28;20045;-66
2022/01/14 07:44:32;;;;;;;74.17;33.80;;;;;;;;;;5030227;28;20140;-66
2022/01/14 07:46:58;;;;;;;63.90;29.47;;;;;;;;;;5032101;28;20041;-66
2022/01/14 07:49:24;;;;;;;59.40;30.30;;;;;;;;;;5038957;28;20085;-66
2022/01/14 07:51:50;;;;;;;59.57;30.40;;;;;;;;;;5038850;28;20052;-66
2022/01/14 07:54:16;;;;;;;60.13;29.70;;;;;;;;;;5039935;28;20041;-66
2022/01/14 07:56:47;;;;;;;60.27;28.83;;;;;;;;;;5038216;28;20120;-66
2022/01/14 07:59:15;;;;;;;53.93;29.17;;;;;;;;;;5030174;28;20045;-65
2022/01/14 08:01:42;;;;;;;54.00;28.33;;;;;;;;;;5029666;28;20049;-66
2022/01/14 08:04:08;;;;;;;53.07;28.57;;;;;;;;;;5030134;28;20038;-66
2022/01/14 08:06:38;;;;;;;54.27;29.43;;;;;;;;;;5029925;28;20046;-68
2022/01/14 08:09:04;;;;;;;56.00;28.33;;;;;;;;;;5029794;28;20098;-67
2022/01/14 08:11:30;;;;;;;51.17;27.87;;;;;;;;;;5028988;28;20463;-70
2022/01/14 08:13:56;;;;;;;60.60;29.60;;;;;;;;;;5033208;28;20040;-70
2022/01/14 08:16:23;;;;;;;58.83;28.13;;;;;;;;;;5030407;28;20050;-70
2022/01/14 08:18:49;;;;;;;66.53;31.67;;;;;;;;;;5028746;28;20057;-70
2022/01/14 08:21:15;;;;;;;62.70;27.73;;;;;;;;;;5027881;28;20045;-70
2022/01/14 08:23:41;;;;;;;52.67;25.83;;;;;;;;;;5028034;28;20052;-71
2022/01/14 08:26:07;;;;;;;58.33;28.10;;;;;;;;;;5028252;28;20401;-70
2022/01/14 08:28:33;;;;;;;53.13;26.10;;;;;;;;;;5028326;28;20053;-70
2022/01/14 08:30:59;;;;;;;45.23;24.63;;;;;;;;;;5027600;28;20545;-70
2022/01/14 08:33:25;;;;;;;43.57;24.50;;;;;;;;;;5028972;28;20132;-70
2022/01/14 08:35:51;;;;;;;54.23;26.30;;;;;;;;;;5028734;28;20056;-70
2022/01/14 08:38:18;;;;;;;46.43;24.20;;;;;;;;;;5027917;28;20041;-70
2022/01/14 08:40:44;;;;;;;44.07;23.63;;;;;;;;;;5027726;28;20523;-71
2022/01/14 08:43:10;;;;;;;57.07;25.20;;;;;;;;;;5009811;28;20188;-70
2022/01/14 08:45:36;;;;;;;43.93;23.43;;;;;;;;;;5029407;28;20084;-69
2022/01/14 08:48:03;;;;;;;50.27;25.33;;;;;;;;;;5028854;28;20048;-70
2022/01/14 08:50:30;;;;;;;55.00;25.50;;;;;;;;;;5029836;28;20047;-71
2022/01/14 08:52:58;;;;;;;47.17;22.80;;;;;;;;;;5026789;28;20057;-70
2022/01/14 08:55:24;;;;;;;44.40;22.77;;;;;;;;;;5026509;28;20470;-70
2022/01/14 08:57:50;;;;;;;42.63;21.03;;;;;;;;;;5027669;28;20129;-71
2022/01/14 09:00:17;;;;;;;56.67;25.13;;;;;;;;;;5027815;28;20061;-71
2022/01/14 09:02:43;;;;;;;41.93;20.63;;;;;;;;;;5028170;28;20048;-70
2022/01/14 09:05:09;;;;;;;44.40;22.77;;;;;;;;;;5026719;28;20045;-70
2022/01/14 09:07:35;;;;;;;39.07;22.97;;;;;;;;;;5027679;28;20045;-68
2022/01/14 09:10:02;;;;;;;44.73;22.13;;;;;;;;;;5026683;28;20551;-69
2022/01/14 09:12:28;;;;;;;45.57;21.37;;;;;;;;;;5028827;28;20041;-68
2022/01/14 09:14:55;;;;;;;43.90;22.90;;;;;;;;;;5027383;28;20063;-68
2022/01/14 09:17:21;;;;;;;52.57;21.73;;;;;;;;;;5027217;28;20057;-69
2022/01/14 09:19:47;;;;;;;54.73;22.93;;;;;;;;;;5027008;28;21120;-68
2022/01/14 09:22:16;;;;;;;48.43;22.10;;;;;;;;;;5028050;28;20060;-69
2022/01/14 09:24:42;;;;;;;41.47;19.83;;;;;;;;;;5027623;28;20049;-68
2022/01/14 09:27:08;;;;;;;38.73;20.27;;;;;;;;;;5028012;28;20565;-68
2022/01/14 09:29:34;;;;;;;43.37;19.30;;;;;;;;;;5027126;28;20057;-68
2022/01/14 09:32:00;;;;;;;34.43;20.77;;;;;;;;;;5026757;28;20077;-68
2022/01/14 09:34:27;;;;;;;33.60;18.83;;;;;;;;;;5010337;28;20064;-68
2022/01/14 09:36:53;;;;;;;40.50;19.43;;;;;;;;;;5009113;28;20045;-68
2022/01/14 09:39:19;;;;;;;39.57;18.83;;;;;;;;;;5023876;28;20458;-69
2022/01/14 09:41:46;;;;;;;36.17;19.43;;;;;;;;;;5027964;28;20041;-68
2022/01/14 09:44:14;;;;;;;33.93;17.67;;;;;;;;;;5027944;28;20046;-68
2022/01/14 09:46:40;;;;;;;39.13;19.07;;;;;;;;;;5027628;28;20042;-68
2022/01/14 09:49:07;;;;;;;34.00;17.57;;;;;;;;;;5026606;28;20119;-68
2022/01/14 09:51:33;;;;;;;38.20;18.43;;;;;;;;;;5010194;28;20056;-68
2022/01/14 09:53:59;;;;;;;39.03;19.53;;;;;;;;;;5027029;28;20096;-68
2022/01/14 09:56:25;;;;;;;36.23;17.93;;;;;;;;;;5010322;28;20492;-68
2022/01/14 09:58:52;;;;;;;38.93;18.47;;;;;;;;;;5027679;28;20045;-68
2022/01/14 10:01:22;;;;;;;41.97;18.90;;;;;;;;;;5010750;28;20507;-68
2022/01/14 10:03:50;;;;;;;36.50;16.40;;;;;;;;;;5026013;28;20499;-68
2022/01/14 10:06:35;;;;;;;39.80;16.13;;;;;;;;;;5028105;28;20045;-68
2022/01/14 10:09:07;;;;;;;30.77;15.83;;;;;;;;;;5028031;28;20042;-68
2022/01/14 10:11:35;;;;;;;29.90;13.57;;;;;;;;;;5026954;28;20107;-68
2022/01/14 10:14:09;;;;;;;31.53;15.33;;;;;;;;;;5026371;28;20071;-69
2022/01/14 10:16:35;;;;;;;30.60;14.17;;;;;;;;;;5026929;28;20053;-68
2022/01/14 10:19:02;;;;;;;27.73;14.43;;;;;;;;;;5028486;28;20061;-68
2022/01/14 10:21:32;;;;;;;24.57;14.40;;;;;;;;;;5027354;28;20038;-68
2022/01/14 10:23:59;;;;;;;31.13;15.63;;;;;;;;;;5026590;28;20045;-69
2022/01/14 10:26:26;;;;;;;32.47;13.70;;;;;;;;;;5027198;28;20057;-71
2022/01/14 10:29:05;;;;;;;32.53;13.70;;;;;;;;;;5026082;28;20116;-71
2022/01/14 10:31:33;;;;;;;26.67;13.13;;;;;;;;;;5027220;28;20410;-70
2022/01/14 10:34:11;;;;;;;27.63;12.50;;;;;;;;;;5026290;28;20037;-71
2022/01/14 10:36:37;;;;;;;38.60;13.47;;;;;;;;;;5026893;28;20450;-71
2022/01/14 10:39:17;;;;;;;23.10;12.00;;;;;;;;;;5026130;28;20852;-71
2022/01/14 10:41:43;;;;;;;22.27;11.83;;;;;;;;;;5025784;28;20041;-70
2022/01/14 10:44:23;;;;;;;22.10;10.97;;;;;;;;;;5027153;28;20056;-71
2022/01/14 10:46:49;;;;;;;22.20;12.33;;;;;;;;;;5031104;28;20045;-71
2022/01/14 10:49:32;;;;;;;29.73;11.70;;;;;;;;;;5033921;28;20053;-71
2022/01/14 10:52:31;;;;;;;27.30;12.13;;;;;;;;;;5025839;28;20064;-71
2022/01/14 10:54:59;;;;;;;23.27;11.93;;;;;;;;;;5014898;28;20365;-71
2022/01/14 10:57:29;;;;;;;22.33;10.90;;;;;;;;;;5026283;28;20385;-71
2022/01/14 10:59:56;;;;;;;23.10;9.93;;;;;;;;;;5026506;28;20041;-71
2022/01/14 11:02:49;;;;;;;23.23;9.80;;;;;;;;;;5026487;28;20049;-71
2022/01/14 11:05:16;;;;;;;18.43;8.10;;;;;;;;;;5026172;28;20132;-71
2022/01/14 11:07:43;;;;;;;18.43;8.33;;;;;;;;;;5030230;28;20468;-71
2022/01/14 11:10:24;;;;;;;23.07;9.03;;;;;;;;;;5031046;28;20077;-69
2022/01/14 11:12:51;;;;;;;24.10;8.47;;;;;;;;;;5031525;28;20068;-70
2022/01/14 11:15:17;;;;;;;20.13;7.30;;;;;;;;;;5028488;28;20503;-69
2022/01/14 11:17:47;;;;;;;13.57;7.40;;;;;;;;;;5029496;28;20582;-69
2022/01/14 11:20:13;;;;;;;16.13;7.40;;;;;;;;;;5030672;28;20049;-69
2022/01/14 11:25:25;;;;;;;20.63;7.77;;;;;;;;;;5029945;28;20046;-69
2022/01/14 11:27:59;;;;;;;20.40;7.70;;;;;;;;;;5030406;28;20188;-69
2022/01/14 11:30:33;;;;;;;19.87;7.10;;;;;;;;;;5029357;28;20049;-69
2022/01/14 11:33:01;;;;;;;;;;;;;;;;;;5013044;28;20056;-69
2022/01/14 11:35:28;;;;;;;17.57;7.20;;;;;;;;;;5030185;28;19929;-69
2022/01/14 11:37:54;;;;;;;15.53;6.57;;;;;;;;;;5028133;28;20037;-69
2022/01/14 11:40:20;;;;;;;22.87;7.33;;;;;;;;;;5029188;28;20038;-69
2022/01/14 11:42:50;;;;;;;18.70;7.23;;;;;;;;;;5027572;28;20041;-70
2022/01/14 11:45:21;;;;;;;18.13;7.47;;;;;;;;;;5028907;28;20045;-70
2022/01/14 11:47:52;;;;;;;16.97;7.13;;;;;;;;;;5028295;28;20057;-70
2022/01/14 11:50:23;;;;;;;15.77;6.83;;;;;;;;;;5030061;28;20131;-70
2022/01/14 11:52:50;;;;;;;18.93;6.60;;;;;;;;;;5029557;28;20420;-70
2022/01/14 11:55:22;;;;;;;23.80;8.00;;;;;;;;;;5030139;28;20075;-70
2022/01/14 11:57:55;;;;;;;20.87;7.10;;;;;;;;;;5029665;28;20049;-70
2022/01/14 12:00:27;;;;;;;24.63;7.90;;;;;;;;;;5030048;28;20668;-70
2022/01/14 12:02:54;;;;;;;20.00;6.93;;;;;;;;;;5026857;28;20057;-70
2022/01/14 12:05:21;;;;;;;22.60;7.17;;;;;;;;;;5029592;28;20156;-70
2022/01/14 12:08:03;;;;;;;15.97;7.83;;;;;;;;;;5028032;28;20087;-71
2022/01/14 12:10:30;;;;;;;18.83;6.70;;;;;;;;;;5028386;28;20049;-70
2022/01/14 12:13:18;;;;;;;24.87;8.40;;;;;;;;;;5029518;28;20038;-70
2022/01/14 12:15:47;;;;;;;20.80;6.17;;;;;;;;;;5027989;28;20049;-70
2022/01/14 12:18:13;;;;;;;15.00;5.67;;;;;;;;;;5028529;28;20111;-70
2022/01/14 12:20:49;;;;;;;16.80;6.27;;;;;;;;;;5029567;28;20423;-70
2022/01/14 12:23:18;;;;;;;13.07;4.97;;;;;;;;;;5029119;28;20046;-70
2022/01/14 12:25:45;;;;;;;16.17;4.43;;;;;;;;;;5028438;28;20156;-70
2022/01/14 12:28:18;;;;;;;16.17;6.00;;;;;;;;;;5028827;28;20113;-70
2022/01/14 12:30:56;;;;;;;15.15;5.80;;;;;;;;;;5029560;28;20092;-70
2022/01/14 12:33:40;;;;;;;17.30;6.83;;;;;;;;;;5027851;28;20352;-69
2022/01/14 12:36:13;;;;;;;19.10;4.45;;;;;;;;;;5027835;28;20045;-71
2022/01/14 12:38:40;;;;;;;17.05;4.95;;;;;;;;;;5029463;28;20041;-71
2022/01/14 12:41:14;;;;;;;15.17;5.43;;;;;;;;;;5027642;28;20071;-71
2022/01/14 12:43:47;;;;;;;10.77;6.33;;;;;;;;;;5027840;28;20053;-71
2022/01/14 12:46:34;;;;;;;11.35;5.68;;;;;;;;;;5027883;28;20396;-71
2022/01/14 12:49:02;;;;;;;10.33;3.93;;;;;;;;;;5015504;28;20083;-71
2022/01/14 12:51:29;;;;;;;14.93;4.10;;;;;;;;;;5028131;28;20439;-72
2022/01/14 12:53:56;;;;;;;16.47;4.23;;;;;;;;;;5011551;28;20041;-71
2022/01/14 12:56:23;;;;;;;19.60;5.10;;;;;;;;;;5027660;28;20045;-71
2022/01/14 12:58:52;;;;;;;17.07;4.57;;;;;;;;;;5025922;28;20045;-71
2022/01/14 13:01:18;;;;;;;13.60;4.13;;;;;;;;;;5025803;28;20103;-71
2022/01/14 13:03:45;;;;;;;13.17;4.70;;;;;;;;;;5026155;28;20049;-70
2022/01/14 13:06:11;;;;;;;14.27;4.07;;;;;;;;;;5009997;28;20049;-72
2022/01/14 13:08:37;;;;;;;15.53;4.23;;;;;;;;;;5026209;28;20067;-71
2022/01/14 13:11:06;;;;;;;17.13;4.37;;;;;;;;;;5010425;28;20049;-72
2022/01/14 13:13:32;;;;;;;21.67;4.77;;;;;;;;;;5026999;28;20147;-72
2022/01/14 13:16:06;;;;;;;15.40;4.53;;;;;;;;;;5027885;28;20041;-72
2022/01/14 13:18:37;;;;;;;;;;;;;;;;;;5043766;28;20053;-72
2022/01/14 13:21:04;;;;;;;11.13;4.57;;;;;;;;;;5026884;28;19921;-72
2022/01/14 13:23:30;;;;;;;15.63;4.70;;;;;;;;;;5027044;28;20067;-72
2022/01/14 13:25:59;;;;;;;17.03;4.67;;;;;;;;;;5026592;28;20056;-72
2022/01/14 13:28:25;;;;;;;14.80;5.23;;;;;;;;;;5027194;28;20046;-71
2022/01/14 13:30:51;;;;;;;14.97;5.53;;;;;;;;;;5043764;28;20052;-71
2022/01/14 13:33:18;;;;;;;17.40;5.20;;;;;;;;;;5028373;28;20422;-71
2022/01/14 13:35:46;;;;;;;15.37;4.67;;;;;;;;;;5026798;28;20041;-71
2022/01/14 13:38:17;;;;;;;14.27;5.07;;;;;;;;;;5027349;28;20050;-72
2022/01/14 13:40:45;;;;;;;12.33;4.83;;;;;;;;;;5027877;28;20452;-71
2022/01/14 13:43:11;;;;;;;19.87;5.47;;;;;;;;;;5026953;28;20144;-72
2022/01/14 13:45:42;;;;;;;21.80;5.63;;;;;;;;;;5026994;28;20049;-71
2022/01/14 13:48:19;;;;;;;16.73;5.10;;;;;;;;;;5026694;28;20056;-72
2022/01/14 13:50:46;;;;;;;18.23;5.67;;;;;;;;;;5026617;28;20139;-72
2022/01/14 13:53:13;;;;;;;16.93;5.27;;;;;;;;;;5043928;28;20041;-72
2022/01/14 13:55:41;;;;;;;16.23;5.07;;;;;;;;;;5043794;28;20046;-71
2022/01/14 13:58:07;;;;;;;17.90;5.27;;;;;;;;;;5035506;28;20049;-72
2022/01/14 14:00:33;;;;;;;13.70;4.83;;;;;;;;;;5047380;28;20087;-72
2022/01/14 14:02:59;;;;;;;18.00;5.57;;;;;;;;;;5047621;28;20089;-72
2022/01/14 14:05:36;;;;;;;21.87;5.83;;;;;;;;;;5043008;28;20045;-72
2022/01/14 14:08:08;;;;;;;13.47;5.43;;;;;;;;;;5011460;28;20049;-72
2022/01/14 14:11:45;;;;;;;15.87;5.43;;;;;;;;;;5028393;28;20096;-72
2022/01/14 14:13:29;;;;;;;18.03;5.70;;;;;;;;;;5028068;28;20092;-72
2022/01/14 14:15:56;;;;;;;20.53;7.07;;;;;;;;;;5027048;28;20061;-72
2022/01/14 14:18:25;;;;;;;17.10;5.73;;;;;;;;;;5026941;28;20140;-72
2022/01/14 14:20:51;;;;;;;20.57;6.20;;;;;;;;;;5026575;28;20081;-72
2022/01/14 14:23:22;;;;;;;11.17;4.47;;;;;;;;;;5027259;28;20143;-72
2022/01/14 14:25:49;;;;;;;11.40;5.03;;;;;;;;;;5027078;28;20179;-72
2022/01/14 14:28:15;;;;;;;19.57;5.50;;;;;;;;;;5008701;28;20044;-72
2022/01/14 14:30:48;;;;;;;16.57;5.83;;;;;;;;;;5026747;28;20407;-72
2022/01/14 14:33:15;;;;;;;15.60;4.72;;;;;;;;;;5028419;28;20491;-72
2022/01/14 14:35:42;;;;;;;19.20;5.43;;;;;;;;;;5037537;28;20045;-72
2022/01/14 14:38:16;;;;;;;15.10;5.13;;;;;;;;;;5030555;28;20049;-72
2022/01/14 14:40:43;;;;;;;15.83;5.83;;;;;;;;;;5030289;28;20116;-72
2022/01/14 14:43:10;;;;;;;18.47;4.90;;;;;;;;;;5030929;28;20049;-72
2022/01/14 14:45:37;;;;;;;21.77;5.70;;;;;;;;;;5031722;28;20554;-71
2022/01/14 14:48:03;;;;;;;17.17;5.17;;;;;;;;;;5029343;28;20053;-72